Historyczne dane pomiarowe

Dodano dane terminowe – wersja testowa.

Dane z okresu 1951-2019

Wersja bazy: 1.34 [2019-03-16, lista zmian], aktualizacja planowana na 2019-04-15

Dane meteo z obszaru Polski uzyskane na podstawie danych udostępnionych przez Instytut Meteorologii i Gospodarki Wodnej – Państwowy Instytut Badawczy.

 

Wybierz Datę:    

       

TemperaturaWilgotnośćWiatrCiśnienieOpadyŚniegCzas trwania zjawisk
 Stacja t tx tn tng RH VA  wxwx mslp ppp RRR   cm mm wxwxwxwxwxwxwx
1983-04-17 6.0 13.1 -1.8 -4.8 71.8- 1.3 3.0---- 0.0------------
1983-04-18 7.3 12.3 0.7 -3.5 52.5- 4.7 7.7---- 0.0------------
1983-04-19 8.0 15.1 1.5 0.1 56.8- 3.3 8.0---- 0.0------------
1983-04-20 9.8 16.1 5.9 0.7 74.0- 4.7 4.3---- 0.0------------
1983-04-21 11.3 21.4 0.6 -3.9 70.5- 0.0 5.0---- 0.0------------
1983-04-22 16.5 25.4 10.0 6.9 68.5- 6.0 5.0---- 0.9------------
1983-04-23 14.1 17.4 11.7 10.9 90.3- 8.0 2.3---- 0.0------------
1983-04-24 14.5 20.5 11.1 9.5 78.5- 5.7 4.0---- 0.4------------
1983-04-25 13.4 18.1 7.9 4.5 84.8- 5.3 3.7---- 0.0------------
1983-04-26 12.8 18.3 5.6 2.9 76.0- 3.0 2.0---- 0.0------------
1983-04-27 13.2 20.2 7.8 4.5 83.0- 7.3 4.3---- 1.2------------
1983-04-28 14.4 19.3 9.8 7.9 64.8- 3.7 3.0---- 0.0------------
1983-04-29 15.3 21.5 7.9 3.4 56.8- 2.7 2.3---- 1.8------------
1983-04-30 12.7 17.2 9.1 6.9 75.0- 4.3 4.7---- 0.0------------
1983-05-01 11.8 17.6 4.0 0.4 67.8- 0.7 4.7---- 0.0------------
1983-05-02 11.7 14.9 9.1 6.9 70.5- 7.7 8.7---- 8.4------------
1983-05-03 10.6 16.1 5.0 3.9 78.0- 6.3 1.7---- 0.0------------
1983-05-04 10.8 14.9 5.9 4.0 78.3- 3.7 2.3---- 13.2------------
1983-05-05 8.0 11.4 6.6 6.2 92.8- 8.0 3.7---- 1.7------------
1983-05-06 8.3 12.4 5.0 4.8 78.8- 6.3 2.0---- 0.0------------
1983-05-07 10.5 15.9 4.7 1.8 71.8- 5.0 1.7---- 0.0------------
1983-05-08 10.6 16.3 3.6 0.0 61.8- 2.3 3.7---- 0.0------------
1983-05-09 11.0 15.5 6.6 4.5 71.5- 7.7 8.7---- 6.2------------
1983-05-10 12.7 16.2 9.9 9.5 85.3- 8.0 2.3---- 0.0------------
1983-05-11 12.3 18.9 6.1 3.5 86.5- 3.7 3.0---- 2.6------------
1983-05-12 14.2 18.9 10.6 7.9 79.3- 5.3 3.0---- 0.0------------
1983-05-13 17.3 24.0 10.5 6.4 72.0- 4.7 2.3---- 0.8------------
1983-05-14 15.8 20.9 11.1 8.2 81.5- 1.7 2.3---- 0.0------------
1983-05-15 19.5 26.7 12.5 8.7 69.3- 3.0 4.3---- 0.0------------
1983-05-16 24.1 32.2 15.3 11.9 57.0- 2.3 6.7---- 0.0------------
228.5 ms

 

Źródłem pochodzenia danych jest Instytut Meteorologii i Gospodarki Wodnej – Państwowy Instytut Badawczy. Dane Instytutu Meteorologii i Gospodarki Wodnej – Państwowego Instytutu Badawczego zostały przetworzone.

Dane źródłowe można odnaleźć na stronie https://dane.imgw.pl